createdAt,value
2018-04-07T00:00:06.783Z,95394
2018-04-07T00:02:34.879Z,95388
2018-04-07T00:05:03.009Z,95372
2018-04-07T00:07:31.164Z,95379
2018-04-07T00:09:59.396Z,95382
2018-04-07T00:12:27.611Z,95387
2018-04-07T00:14:55.731Z,95386
2018-04-07T00:17:23.835Z,95376
2018-04-07T00:19:51.937Z,95381
2018-04-07T00:22:20.068Z,95384
2018-04-07T00:24:48.921Z,95374
2018-04-07T00:27:17.089Z,95377
2018-04-07T00:29:45.320Z,95369
2018-04-07T00:32:13.448Z,95373
2018-04-07T00:34:41.572Z,95366
2018-04-07T00:37:09.662Z,95377
2018-04-07T00:39:38.483Z,95369
2018-04-07T00:42:06.558Z,95363
2018-04-07T00:44:34.656Z,95355
2018-04-07T00:47:02.810Z,95358
2018-04-07T00:49:30.928Z,95371
2018-04-07T00:51:59.041Z,95366
2018-04-07T00:54:27.176Z,95358
2018-04-07T00:56:55.282Z,95347
2018-04-07T00:59:23.395Z,95339
2018-04-07T01:01:52.345Z,95344
2018-04-07T01:04:20.541Z,95346
2018-04-07T01:06:48.670Z,95349
2018-04-07T01:09:16.775Z,95351
2018-04-07T01:11:44.876Z,95348
2018-04-07T01:14:12.987Z,95332
2018-04-07T01:16:41.110Z,95337
2018-04-07T01:19:09.593Z,95323
2018-04-07T01:21:38.455Z,95332
2018-04-07T01:24:06.579Z,95330
2018-04-07T01:26:34.665Z,95322
2018-04-07T01:29:02.835Z,95323
2018-04-07T01:31:30.934Z,95326
2018-04-07T01:33:59.043Z,95320
2018-04-07T01:36:27.161Z,95322
2018-04-07T01:38:56.268Z,95317
2018-04-07T01:41:24.505Z,95317
2018-04-07T01:43:53.396Z,95322
2018-04-07T01:46:21.567Z,95322
2018-04-07T01:48:49.662Z,95324
2018-04-07T01:51:17.802Z,95332
2018-04-07T01:53:45.906Z,95320
2018-04-07T01:56:14.000Z,95319
2018-04-07T01:58:42.194Z,95322
2018-04-07T02:01:10.368Z,95305
2018-04-07T02:03:38.490Z,95309
2018-04-07T02:06:06.622Z,95318
2018-04-07T02:08:34.806Z,95324
2018-04-07T02:11:02.906Z,95318
2018-04-07T02:13:31.006Z,95315
2018-04-07T02:15:59.112Z,95310
2018-04-07T02:18:27.202Z,95309
2018-04-07T02:20:55.394Z,95307
2018-04-07T02:23:23.598Z,95297
2018-04-07T02:25:51.705Z,95301
2018-04-07T02:28:20.267Z,95293
2018-04-07T02:30:48.462Z,95294
2018-04-07T02:33:16.709Z,95300
2018-04-07T02:35:44.917Z,95295
2018-04-07T02:38:13.037Z,95292
2018-04-07T02:40:41.144Z,95293
2018-04-07T02:43:09.313Z,95296
2018-04-07T02:45:37.423Z,95293
2018-04-07T02:48:05.537Z,95293
2018-04-07T02:50:33.646Z,95309
2018-04-07T02:53:01.896Z,95304
2018-04-07T02:55:29.996Z,95307
2018-04-07T02:57:58.109Z,95308
2018-04-07T03:00:26.256Z,95314
2018-04-07T03:02:54.357Z,95309
2018-04-07T03:05:22.500Z,95312
2018-04-07T03:07:50.602Z,95313
2018-04-07T03:10:18.700Z,95307
2018-04-07T03:12:46.804Z,95312
2018-04-07T03:15:14.926Z,95300
2018-04-07T03:17:43.046Z,95299
2018-04-07T03:20:11.172Z,95293
2018-04-07T03:22:39.299Z,95297
2018-04-07T03:25:07.384Z,95295
2018-04-07T03:27:35.508Z,95293
2018-04-07T03:30:03.604Z,95302
2018-04-07T03:32:31.744Z,95300
2018-04-07T03:34:59.970Z,95300
2018-04-07T03:37:28.139Z,95304
2018-04-07T03:39:57.044Z,95293
2018-04-07T03:42:25.141Z,95296
2018-04-07T03:44:53.279Z,95300
2018-04-07T03:47:21.371Z,95300
2018-04-07T03:49:49.564Z,95299
2018-04-07T03:52:17.703Z,95303
2018-04-07T03:54:45.838Z,95297
2018-04-07T03:57:13.932Z,95292
2018-04-07T03:59:42.271Z,95298
2018-04-07T04:02:10.370Z,95287
2018-04-07T04:04:38.469Z,95290
2018-04-07T04:07:06.559Z,95282
2018-04-07T04:09:34.663Z,95293
2018-04-07T04:12:03.203Z,95295
2018-04-07T04:14:32.075Z,95294
2018-04-07T04:17:00.176Z,95283
2018-04-07T04:19:28.285Z,95294
2018-04-07T04:21:56.410Z,95292
2018-04-07T04:24:24.511Z,95287
2018-04-07T04:26:52.627Z,95289
2018-04-07T04:29:20.753Z,95292
2018-04-07T04:31:48.845Z,95297
2018-04-07T04:34:16.956Z,95296
2018-04-07T04:36:45.106Z,95296
2018-04-07T04:39:13.350Z,95293
2018-04-07T04:41:41.494Z,95288
2018-04-07T04:44:09.620Z,95297
2018-04-07T04:46:37.723Z,95296
2018-04-07T04:49:05.920Z,95290
2018-04-07T04:51:34.044Z,95289
2018-04-07T04:54:02.169Z,95300
2018-04-07T04:56:30.293Z,95288
2018-04-07T04:58:58.390Z,95310
2018-04-07T05:01:27.270Z,95298
2018-04-07T05:03:55.364Z,95297
2018-04-07T05:06:23.516Z,95309
2018-04-07T05:08:51.655Z,95308
2018-04-07T05:11:19.746Z,95299
2018-04-07T05:13:47.908Z,95304
2018-04-07T05:16:16.991Z,95300
2018-04-07T05:18:45.188Z,95310
2018-04-07T05:21:13.284Z,95306
2018-04-07T05:23:42.184Z,95293
2018-04-07T05:26:10.354Z,95299
2018-04-07T05:28:38.473Z,95293
2018-04-07T05:31:06.584Z,95293
2018-04-07T05:33:35.005Z,95297
2018-04-07T05:36:03.211Z,95286
2018-04-07T05:38:31.305Z,95288
2018-04-07T05:40:59.412Z,95300
2018-04-07T05:43:27.520Z,95298
2018-04-07T05:45:55.650Z,95297
2018-04-07T05:48:24.505Z,95306
2018-04-07T05:50:52.615Z,95296
2018-04-07T05:53:23.252Z,95302
2018-04-07T05:55:51.377Z,95301
2018-04-07T05:58:19.482Z,95300
2018-04-07T06:00:48.360Z,95300
2018-04-07T06:03:17.167Z,95304
2018-04-07T06:05:45.284Z,95305
2018-04-07T06:08:13.396Z,95302
2018-04-07T06:10:42.305Z,95305
2018-04-07T06:13:10.399Z,95312
2018-04-07T06:15:39.140Z,95305
2018-04-07T06:18:08.298Z,95301
2018-04-07T06:20:36.475Z,95315
2018-04-07T06:23:04.606Z,95312
2018-04-07T06:25:32.744Z,95306
2018-04-07T06:28:00.880Z,95307
2018-04-07T06:30:28.979Z,95297
2018-04-07T06:32:57.254Z,95296
2018-04-07T06:35:25.372Z,95303
2018-04-07T06:37:53.476Z,95316
2018-04-07T06:40:21.586Z,95302
2018-04-07T06:42:49.708Z,95302
2018-04-07T06:45:17.812Z,95306
2018-04-07T06:47:45.934Z,95301
2018-04-07T06:50:14.025Z,95301
2018-04-07T06:52:42.174Z,95301
2018-04-07T06:55:10.316Z,95302
2018-04-07T06:57:38.431Z,95304
2018-04-07T07:00:08.340Z,95293
2018-04-07T07:02:36.581Z,95290
2018-04-07T07:05:04.877Z,95295
2018-04-07T07:07:33.055Z,95298
2018-04-07T07:10:01.551Z,95293
2018-04-07T07:12:29.906Z,95292
2018-04-07T07:14:58.004Z,95289
2018-04-07T07:17:26.091Z,95299
2018-04-07T07:19:54.887Z,95293
2018-04-07T07:22:22.985Z,95303
2018-04-07T07:24:51.072Z,95293
2018-04-07T07:27:19.245Z,95302
2018-04-07T07:29:47.351Z,95309
2018-04-07T07:32:15.439Z,95298
2018-04-07T07:34:43.561Z,95299
2018-04-07T07:37:11.675Z,95303
2018-04-07T07:39:40.453Z,95298
2018-04-07T07:42:08.657Z,95303
2018-04-07T07:44:36.736Z,95298
2018-04-07T07:47:04.840Z,95305
2018-04-07T07:49:32.981Z,95301
2018-04-07T07:52:01.096Z,95305
2018-04-07T07:54:29.187Z,95311
2018-04-07T07:56:57.275Z,95304
2018-04-07T07:59:25.399Z,95308
2018-04-07T08:01:53.571Z,95301
2018-04-07T08:04:21.798Z,95320
2018-04-07T08:06:50.032Z,95313
2018-04-07T08:09:18.124Z,95313
2018-04-07T08:11:47.002Z,95315
2018-04-07T08:14:15.106Z,95304
2018-04-07T08:16:43.196Z,95315
2018-04-07T08:19:11.321Z,95300
2018-04-07T08:21:39.422Z,95304
2018-04-07T08:24:07.542Z,95313
2018-04-07T08:26:35.632Z,95313
2018-04-07T08:29:04.542Z,95305
2018-04-07T08:31:32.627Z,95308
2018-04-07T08:34:00.756Z,95304
2018-04-07T08:36:28.926Z,95298
2018-04-07T08:38:57.028Z,95302
2018-04-07T08:41:25.920Z,95303
2018-04-07T08:43:54.030Z,95295
2018-04-07T08:46:22.151Z,95305
2018-04-07T08:48:50.293Z,95293
2018-04-07T08:51:19.178Z,95291
2018-04-07T08:53:47.287Z,95300
2018-04-07T08:56:15.409Z,95293
2018-04-07T08:58:43.519Z,95302
2018-04-07T09:01:11.599Z,95298
2018-04-07T09:03:39.730Z,95297
2018-04-07T09:06:07.952Z,95300
2018-04-07T09:08:36.241Z,95285
2018-04-07T09:11:04.449Z,95293
2018-04-07T09:13:32.641Z,95291
2018-04-07T09:16:00.747Z,95284
2018-04-07T09:18:29.600Z,95271
2018-04-07T09:20:57.710Z,95277
2018-04-07T09:23:26.594Z,95278
2018-04-07T09:25:54.701Z,95277
2018-04-07T09:28:22.825Z,95272
2018-04-07T09:30:50.966Z,95273
2018-04-07T09:33:19.053Z,95257
2018-04-07T09:35:47.148Z,95267
2018-04-07T09:38:15.260Z,95261
2018-04-07T09:40:43.428Z,95274
2018-04-07T09:43:11.642Z,95267
2018-04-07T09:45:40.462Z,95267
2018-04-07T09:48:08.556Z,95276
2018-04-07T09:50:36.658Z,95269
2018-04-07T09:53:04.753Z,95263
2018-04-07T09:55:32.858Z,95261
2018-04-07T09:58:00.970Z,95252
2018-04-07T10:00:29.073Z,95256
2018-04-07T10:03:01.692Z,95265
2018-04-07T10:05:30.597Z,95263
2018-04-07T10:07:58.714Z,95262
2018-04-07T10:10:26.842Z,95259
2018-04-07T10:12:55.003Z,95249
2018-04-07T10:15:23.880Z,95248
2018-04-07T10:17:52.065Z,95244
2018-04-07T10:20:20.183Z,95242
2018-04-07T10:22:48.292Z,95237
2018-04-07T10:25:16.400Z,95237
2018-04-07T10:27:44.515Z,95246
2018-04-07T10:30:12.613Z,95237
2018-04-07T10:32:40.705Z,95236
2018-04-07T10:35:08.817Z,95237
2018-04-07T10:37:37.007Z,95237
2018-04-07T10:40:05.215Z,95234
2018-04-07T10:42:34.092Z,95235
2018-04-07T10:45:02.192Z,95221
2018-04-07T10:47:30.298Z,95224
2018-04-07T10:49:58.420Z,95216
2018-04-07T10:52:26.565Z,95226
2018-04-07T10:54:54.770Z,95213
2018-04-07T10:57:23.001Z,95215
2018-04-07T10:59:51.215Z,95216
2018-04-07T11:02:20.102Z,95214
2018-04-07T11:04:48.204Z,95214
2018-04-07T11:07:16.304Z,95204
2018-04-07T11:09:44.396Z,95210
2018-04-07T11:12:12.506Z,95209
2018-04-07T11:14:40.717Z,95206
2018-04-07T11:17:08.882Z,95195
2018-04-07T11:19:37.076Z,95190
2018-04-07T11:22:05.193Z,95192
2018-04-07T11:24:33.340Z,95203
2018-04-07T11:27:01.439Z,95190
2018-04-07T11:29:30.337Z,95184
2018-04-07T11:31:58.421Z,95194
2018-04-07T11:34:26.527Z,95198
2018-04-07T11:36:54.697Z,95186
2018-04-07T11:39:22.829Z,95183
2018-04-07T11:41:51.713Z,95175
2018-04-07T11:44:19.817Z,95172
2018-04-07T11:46:47.940Z,95181
2018-04-07T11:49:16.050Z,95180
2018-04-07T11:51:44.156Z,95179
2018-04-07T11:54:12.290Z,95168
2018-04-07T11:56:40.398Z,95168
2018-04-07T11:59:08.483Z,95169
2018-04-07T12:01:36.645Z,95168
2018-04-07T12:04:04.736Z,95166
2018-04-07T12:06:32.887Z,95161
2018-04-07T12:09:01.092Z,95159
2018-04-07T12:11:29.412Z,95155
2018-04-07T12:13:57.498Z,95163
2018-04-07T12:16:25.588Z,95151
2018-04-07T12:18:53.713Z,95162
2018-04-07T12:21:21.822Z,95158
2018-04-07T12:23:50.010Z,95153
2018-04-07T12:26:18.191Z,95164
2018-04-07T12:28:46.280Z,95153
2018-04-07T12:31:14.428Z,95163
2018-04-07T12:33:42.631Z,95161
2018-04-07T12:36:10.777Z,95138
2018-04-07T12:38:38.871Z,95140
2018-04-07T12:41:07.638Z,95136
2018-04-07T12:43:35.767Z,95144
2018-04-07T12:46:03.869Z,95137
2018-04-07T12:48:32.043Z,95135
2018-04-07T12:51:00.865Z,95132
2018-04-07T12:53:28.972Z,95129
2018-04-07T12:55:57.055Z,95137
2018-04-07T12:58:25.212Z,95134
2018-04-07T13:00:53.323Z,95131
2018-04-07T13:03:21.464Z,95134
2018-04-07T13:05:49.581Z,95133
2018-04-07T13:08:17.708Z,95134
2018-04-07T13:10:45.819Z,95125
2018-04-07T13:13:13.913Z,95120
2018-04-07T13:15:42.017Z,95117
2018-04-07T13:18:10.265Z,95123
2018-04-07T13:20:38.431Z,95122
2018-04-07T13:23:06.539Z,95129
2018-04-07T13:25:34.655Z,95123
2018-04-07T13:28:02.789Z,95121
2018-04-07T13:30:30.882Z,95108
2018-04-07T13:32:58.988Z,95109
2018-04-07T13:35:27.085Z,95112
2018-04-07T13:37:55.301Z,95103
2018-04-07T13:40:23.416Z,95106
2018-04-07T13:42:51.539Z,95097
2018-04-07T13:45:19.659Z,95106
2018-04-07T13:47:47.769Z,95098
2018-04-07T13:50:15.887Z,95100
2018-04-07T13:52:43.987Z,95088
2018-04-07T13:55:12.856Z,95087
2018-04-07T13:57:40.986Z,95087
2018-04-07T14:00:09.130Z,95081
2018-04-07T14:02:37.839Z,95092
2018-04-07T14:05:05.957Z,95083
2018-04-07T14:07:34.115Z,95077
2018-04-07T14:10:02.344Z,95082
2018-04-07T14:12:31.228Z,95078
2018-04-07T14:14:59.334Z,95079
2018-04-07T14:17:27.452Z,95072
2018-04-07T14:19:55.551Z,95066
2018-04-07T14:22:23.670Z,95066
2018-04-07T14:24:51.816Z,95064
2018-04-07T14:27:19.965Z,95066
2018-04-07T14:29:48.062Z,95066
2018-04-07T14:32:16.165Z,95067
2018-04-07T14:34:44.273Z,95060
2018-04-07T14:37:12.361Z,95057
2018-04-07T14:39:40.472Z,95059
2018-04-07T14:42:08.584Z,95048
2018-04-07T14:44:36.725Z,95048
2018-04-07T14:47:04.853Z,95046
2018-04-07T14:49:32.971Z,95046
2018-04-07T14:52:01.099Z,95049
2018-04-07T14:54:29.209Z,95045
2018-04-07T14:56:57.317Z,95048
2018-04-07T14:59:25.407Z,95052
2018-04-07T15:01:54.299Z,95043
2018-04-07T15:04:22.419Z,95052
2018-04-07T15:06:51.109Z,95050
2018-04-07T15:09:19.300Z,95044
2018-04-07T15:11:47.606Z,95045
2018-04-07T15:14:16.515Z,95046
2018-04-07T15:16:44.617Z,95054
2018-04-07T15:19:12.738Z,95043
2018-04-07T15:21:40.854Z,95047
2018-04-07T15:24:09.990Z,95038
2018-04-07T15:26:38.080Z,95041
2018-04-07T15:29:06.959Z,95041
2018-04-07T15:31:35.547Z,95038
2018-04-07T15:34:03.689Z,95039
2018-04-07T15:36:31.820Z,95042
2018-04-07T15:38:59.932Z,95041
2018-04-07T15:41:28.065Z,95038
2018-04-07T15:43:56.157Z,95038
2018-04-07T15:46:24.244Z,95038
2018-04-07T15:48:52.356Z,95035
2018-04-07T15:51:20.532Z,95034
2018-04-07T15:53:48.732Z,95034
2018-04-07T15:56:16.970Z,95030
2018-04-07T15:58:45.217Z,95030
2018-04-07T16:01:13.341Z,95022
2018-04-07T16:03:41.782Z,95025
2018-04-07T16:06:09.965Z,95018
2018-04-07T16:08:38.394Z,95021
2018-04-07T16:11:06.522Z,95020
2018-04-07T16:13:34.759Z,95028
2018-04-07T16:16:03.045Z,95027
2018-04-07T16:18:31.215Z,95020
2018-04-07T16:20:59.406Z,95028
2018-04-07T16:23:27.616Z,95023
2018-04-07T16:25:56.507Z,95020
2018-04-07T16:28:24.624Z,95021
2018-04-07T16:30:52.735Z,95018
2018-04-07T16:33:20.864Z,95014
2018-04-07T16:35:49.326Z,95022
2018-04-07T16:38:17.448Z,95020
2018-04-07T16:40:45.552Z,95015
2018-04-07T16:43:14.443Z,95018
2018-04-07T16:45:43.012Z,95015
2018-04-07T16:48:11.182Z,95022
2018-04-07T16:50:39.376Z,95021
2018-04-07T16:53:07.524Z,95017
2018-04-07T16:55:36.196Z,95016
2018-04-07T16:58:04.312Z,95019
2018-04-07T17:00:33.275Z,95014
2018-04-07T17:03:01.396Z,95015
2018-04-07T17:05:29.712Z,95005
2018-04-07T17:07:57.826Z,95013
2018-04-07T17:10:26.704Z,95007
2018-04-07T17:12:55.630Z,95008
2018-04-07T17:15:23.783Z,95015
2018-04-07T17:17:51.893Z,95002
2018-04-07T17:20:20.170Z,94999
2018-04-07T17:22:48.298Z,95003
2018-04-07T17:25:17.187Z,95007
2018-04-07T17:27:46.620Z,95001
2018-04-07T17:30:14.926Z,95008
2018-04-07T17:32:43.041Z,95017
2018-04-07T17:35:11.941Z,95015
2018-04-07T17:37:40.076Z,95007
2018-04-07T17:40:08.199Z,95004
2018-04-07T17:42:36.301Z,95009
2018-04-07T17:45:04.433Z,95013
2018-04-07T17:47:32.573Z,95006
2018-04-07T17:50:00.700Z,95002
2018-04-07T17:52:28.809Z,95017
2018-04-07T17:54:56.921Z,95018
2018-04-07T17:57:25.091Z,95016
2018-04-07T17:59:53.231Z,95021
2018-04-07T18:02:21.379Z,95024
2018-04-07T18:04:49.498Z,95023
2018-04-07T18:07:17.644Z,95019
2018-04-07T18:09:45.770Z,95025
2018-04-07T18:12:13.884Z,95022
2018-04-07T18:14:42.002Z,95030
2018-04-07T18:17:14.012Z,95026
2018-04-07T18:19:43.578Z,95037
2018-04-07T18:22:11.680Z,95035
2018-04-07T18:24:39.788Z,95027
2018-04-07T18:27:07.887Z,95030
2018-04-07T18:29:36.052Z,95028
2018-04-07T18:32:04.142Z,95029
2018-04-07T18:34:32.253Z,95032
2018-04-07T18:37:00.385Z,95030
2018-04-07T18:39:28.496Z,95039
2018-04-07T18:41:56.617Z,95037
2018-04-07T18:44:24.721Z,95043
2018-04-07T18:46:52.838Z,95036
2018-04-07T18:49:20.999Z,95040
2018-04-07T18:51:49.109Z,95041
2018-04-07T18:54:19.811Z,95042
2018-04-07T18:56:47.972Z,95045
2018-04-07T18:59:16.073Z,95047
2018-04-07T19:01:44.219Z,95050
2018-04-07T19:04:12.353Z,95048
2018-04-07T19:06:40.476Z,95055
2018-04-07T19:09:08.584Z,95051
2018-04-07T19:11:36.687Z,95051
2018-04-07T19:14:04.839Z,95058
2018-04-07T19:16:32.940Z,95048
2018-04-07T19:19:01.164Z,95043
2018-04-07T19:21:29.304Z,95047
2018-04-07T19:23:57.544Z,95041
2018-04-07T19:26:25.731Z,95043
2018-04-07T19:28:53.860Z,95039
2018-04-07T19:31:21.965Z,95038
2018-04-07T19:33:50.081Z,95035
2018-04-07T19:36:18.212Z,95042
2018-04-07T19:38:46.926Z,95038
2018-04-07T19:41:15.169Z,95040
2018-04-07T19:43:43.264Z,95032
2018-04-07T19:46:11.799Z,95035
2018-04-07T19:48:39.904Z,95026
2018-04-07T19:51:08.016Z,95028
2018-04-07T19:53:36.885Z,95029
2018-04-07T19:56:05.157Z,95028
2018-04-07T19:58:33.272Z,95031
2018-04-07T20:01:01.431Z,95024
2018-04-07T20:03:29.829Z,95019
2018-04-07T20:05:57.974Z,95019
2018-04-07T20:08:27.203Z,95017
2018-04-07T20:10:55.350Z,95010
2018-04-07T20:13:23.524Z,95024
2018-04-07T20:15:51.697Z,95016
2018-04-07T20:18:19.853Z,95013
2018-04-07T20:20:47.992Z,95021
2018-04-07T20:23:16.125Z,95023
2018-04-07T20:25:44.232Z,95021
2018-04-07T20:28:12.342Z,95016
2018-04-07T20:30:40.471Z,95016
2018-04-07T20:33:08.569Z,95015
2018-04-07T20:35:37.808Z,95021
2018-04-07T20:38:05.936Z,95017
2018-04-07T20:40:34.055Z,95014
2018-04-07T20:43:03.434Z,95015
2018-04-07T20:45:31.672Z,95003
2018-04-07T20:47:59.784Z,95007
2018-04-07T20:50:27.900Z,95004
2018-04-07T20:52:56.014Z,95006
2018-04-07T20:55:24.141Z,95004
2018-04-07T20:57:53.037Z,95012
2018-04-07T21:00:21.145Z,95011
2018-04-07T21:02:49.438Z,95008
2018-04-07T21:05:17.586Z,95004
2018-04-07T21:07:46.489Z,94995
2018-04-07T21:10:14.628Z,94994
2018-04-07T21:12:42.742Z,95002
2018-04-07T21:15:11.227Z,94999
2018-04-07T21:17:39.315Z,94994
2018-04-07T21:20:07.424Z,94999
2018-04-07T21:22:35.543Z,94997
2018-04-07T21:25:03.683Z,95007
2018-04-07T21:27:33.306Z,95002
2018-04-07T21:30:02.296Z,95001
2018-04-07T21:32:30.705Z,94993
2018-04-07T21:34:59.731Z,94990
2018-04-07T21:37:27.850Z,94992
2018-04-07T21:39:55.966Z,94992
2018-04-07T21:42:24.114Z,94985
2018-04-07T21:44:52.215Z,94990
2018-04-07T21:47:20.373Z,94988
2018-04-07T21:49:49.363Z,94991
2018-04-07T21:52:17.513Z,94983
2018-04-07T21:54:45.626Z,94979
2018-04-07T21:57:13.754Z,94988
2018-04-07T21:59:41.911Z,94983
2018-04-07T22:02:10.026Z,94978
2018-04-07T22:04:38.126Z,94989
2018-04-07T22:07:06.216Z,94983
2018-04-07T22:09:34.332Z,94987
2018-04-07T22:12:02.415Z,94985
2018-04-07T22:14:30.565Z,94985
2018-04-07T22:16:58.799Z,94988
2018-04-07T22:19:26.930Z,94992
2018-04-07T22:21:56.225Z,94989
2018-04-07T22:24:24.334Z,94990
2018-04-07T22:26:52.480Z,94990
2018-04-07T22:29:20.597Z,94997
2018-04-07T22:31:49.496Z,94992
2018-04-07T22:34:18.493Z,94996
2018-04-07T22:36:46.698Z,94994
2018-04-07T22:39:14.927Z,95002
2018-04-07T22:41:43.168Z,94993
2018-04-07T22:44:11.415Z,94990
2018-04-07T22:46:39.967Z,94999
2018-04-07T22:49:08.064Z,94998
2018-04-07T22:51:36.163Z,95002
2018-04-07T22:54:04.272Z,95002
2018-04-07T22:56:33.869Z,94996
2018-04-07T22:59:01.991Z,94992
2018-04-07T23:01:30.155Z,94993
2018-04-07T23:03:58.362Z,94992
2018-04-07T23:06:26.607Z,94990
2018-04-07T23:08:54.890Z,94993
2018-04-07T23:11:23.101Z,94994
2018-04-07T23:13:51.331Z,94984
2018-04-07T23:16:19.542Z,94982
2018-04-07T23:18:48.446Z,94982
2018-04-07T23:21:16.570Z,94978
2018-04-07T23:23:44.680Z,94978
2018-04-07T23:26:12.797Z,94973
2018-04-07T23:28:40.911Z,94959
2018-04-07T23:31:09.931Z,94963
2018-04-07T23:33:38.088Z,94959
2018-04-07T23:36:06.186Z,94961
2018-04-07T23:38:35.079Z,94959
2018-04-07T23:41:03.180Z,94953
2018-04-07T23:43:31.307Z,94952
2018-04-07T23:45:59.416Z,94953
2018-04-07T23:48:27.523Z,94954
2018-04-07T23:50:55.675Z,94951
2018-04-07T23:53:23.778Z,94956
2018-04-07T23:55:51.865Z,94962
2018-04-07T23:58:19.958Z,94956
